Airfield :
LOGIN :

Register | Disclaimer

   EN    FR    IT 

 










Legend :    VFR   Marginal VFR   IFR   Intensive IFR   Very Intensive IFR
Visi :
Ceiling :
>= 8 km
>= 3000ft
5 to 8 km
1000 to 3000 ft
1500m to 5 km
500 to 1000 ft
800 to 1500m
200 to 500 ft
< 800m
< 200 ft
Symbols :   Thunderstorms  Fog  Heavy snow  Heavy precipitations  Wind > 20 kt
SIGMETs :     Misc.  Thunderstorms  Icing  Turbulence  Mountain Waves  Volcanic Ashes






- Airport Elevation : 74 ft
- IATA code : LRH


LFBH - La Rochelle Ile de Ré

CURRENT METAR :
  • 211330Z AUTO 02015KT 9999 BKN046 BKN052 13/04 Q1024 TEMPO 02015G25KT

EXPIRED METARs :
  • 211300Z AUTO 02016KT 9999 BKN048 12/03 Q1025 TEMPO 02015G25KT
  • 211230Z AUTO 03016KT 9999 OVC049 12/03 Q1025 TEMPO 02015G25KT
  • 211200Z AUTO 03018KT 9999 BKN046 OVC052 12/02 Q1025 TEMPO 02015G25KT
  • 211130Z AUTO 03019KT 9999 FEW042 13/03 Q1025 TEMPO 02015G25KT
  • 211100Z AUTO 02016KT 9999 BKN043 11/02 Q1025 TEMPO 02015G25KT
  • 211030Z AUTO 03016KT 360V060 9999 FEW044 11/03 Q1025 TEMPO 02015G25KT
  • 211000Z AUTO 04016KT CAVOK 11/03 Q1025 TEMPO 02015G25KT
  • 210930Z AUTO 04015KT CAVOK 11/03 Q1025 TEMPO 02015G25KT
  • 210900Z AUTO 05012KT 030V090 CAVOK 11/03 Q1025 TEMPO 02015G25KT

TAF TAF LFBH
Valid from the 21 at 12:00 until the 22 at 12:00 UTC


211100Z 2112/2212 03016KT 9999 FEW045
TEMPO 2112/2118 02015G25KT
ATIS : +33 5 46 00 13 92



MET'MAP, your aeronautical weather chart ! - Copyright ORBIFLY December 2007 - Disclaimer

ORBIFLY MET'MAP TEAM :

Programming & Development : Alexandra Zaïnal
Original concept : Baudouin d'Aumeries
Technical & hardware support : Manuel Goepfert
Assistance : Marc-Olivier Méhu




SOURCES & CREDITS :

   NOAA